Time;durP1;ratioP1;P1;durP2;ratioP2;P2;SDS_P1;SDS_P2;PMS_P1;PMS_P2;Temp;Humidity;BMP_temperature;BMP_pressure;BME280_temperature;BME280_humidity;BME280_pressure;Samples;Min_cycle;Max_cycle;Signal;HPM_P1;HPM_P2
2022/12/16 00:01:21;;;;;;;16.40;6.70;;;1.60;99.90;;;;;;6145705;23;20036;-77
2022/12/16 00:03:55;;;;;;;14.45;7.82;;;1.50;99.90;;;;;;6148952;23;20481;-78
2022/12/16 00:06:24;;;;;;;16.08;6.78;;;1.50;99.90;;;;;;6148370;23;20084;-78
2022/12/16 00:08:50;;;;;;;14.93;7.10;;;1.50;99.90;;;;;;6123758;23;20381;-77
2022/12/16 00:11:15;;;;;;;15.70;6.35;;;1.30;99.90;;;;;;6150018;23;20013;-76
2022/12/16 00:13:44;;;;;;;22.90;7.55;;;1.40;99.90;;;;;;6122770;23;20331;-78
2022/12/16 00:16:12;;;;;;;15.48;7.65;;;1.30;99.90;;;;;;6148630;23;20075;-76
2022/12/16 00:18:38;;;;;;;15.55;6.75;;;1.20;99.90;;;;;;6149072;23;20520;-77
2022/12/16 00:21:05;;;;;;;23.73;7.25;;;1.30;99.90;;;;;;6148373;23;20014;-77
2022/12/16 00:23:31;;;;;;;16.05;7.07;;;1.20;99.90;;;;;;6151035;23;20020;-77
2022/12/16 00:25:57;;;;;;;17.38;7.07;;;1.10;99.90;;;;;;6123620;23;20348;-76
2022/12/16 00:28:24;;;;;;;13.10;6.28;;;1.10;99.90;;;;;;6148755;23;20044;-77
2022/12/16 00:30:51;;;;;;;14.30;6.43;;;1.00;99.90;;;;;;6148506;23;20182;-78
2022/12/16 00:33:17;;;;;;;14.05;5.80;;;0.90;99.90;;;;;;6149674;23;20029;-77
2022/12/16 00:35:44;;;;;;;11.77;6.22;;;0.90;99.90;;;;;;6149552;23;20303;-78
2022/12/16 00:38:09;;;;;;;13.98;5.70;;;0.80;99.90;;;;;;6149674;23;20117;-77
2022/12/16 00:40:35;;;;;;;15.85;5.95;;;0.80;99.90;;;;;;6123414;23;20532;-76
2022/12/16 00:43:01;;;;;;;13.18;5.63;;;0.70;99.90;;;;;;6148029;23;20497;-73
2022/12/16 00:45:26;;;;;;;15.55;6.65;;;0.60;99.90;;;;;;6149691;23;20049;-77
2022/12/16 00:47:52;;;;;;;12.50;5.78;;;0.60;99.90;;;;;;6148799;23;20347;-79
2022/12/16 00:50:19;;;;;;;18.92;6.93;;;0.60;99.90;;;;;;6123153;23;20018;-77
2022/12/16 00:52:48;;;;;;;15.18;6.00;;;0.50;99.90;;;;;;6149959;23;20022;-78
2022/12/16 00:55:18;;;;;;;11.55;5.82;;;0.60;99.90;;;;;;6147494;23;20181;-78
2022/12/16 00:57:44;;;;;;;11.45;5.63;;;0.60;99.90;;;;;;6148694;23;20045;-77
2022/12/16 01:00:12;;;;;;;12.00;5.43;;;0.60;99.90;;;;;;6148404;23;20196;-77
2022/12/16 01:02:40;;;;;;;11.60;5.07;;;0.50;99.90;;;;;;6146836;23;20045;-78
2022/12/16 01:05:07;;;;;;;10.18;4.72;;;0.50;99.90;;;;;;6149074;23;20025;-77
2022/12/16 01:07:32;;;;;;;8.40;4.32;;;0.50;99.90;;;;;;6123014;23;20102;-78
2022/12/16 01:09:58;;;;;;;12.10;4.72;;;0.50;99.90;;;;;;6148078;23;20442;-78
2022/12/16 01:12:24;;;;;;;9.48;5.07;;;0.50;99.90;;;;;;6148177;23;20096;-77
2022/12/16 01:14:50;;;;;;;15.80;5.40;;;0.40;99.90;;;;;;6148554;23;20021;-78
2022/12/16 01:17:16;;;;;;;12.70;4.72;;;0.50;99.90;;;;;;6128927;23;20037;-78
2022/12/16 01:19:41;;;;;;;7.78;4.03;;;0.60;99.90;;;;;;6150830;23;20063;-77
2022/12/16 01:22:07;;;;;;;13.35;5.22;;;0.50;99.90;;;;;;6149601;23;20014;-77
2022/12/16 01:24:33;;;;;;;10.30;5.05;;;0.60;99.90;;;;;;6148807;23;20021;-78
2022/12/16 01:26:59;;;;;;;12.38;4.68;;;0.60;99.90;;;;;;6148773;23;20052;-78
2022/12/16 01:29:24;;;;;;;10.30;4.95;;;0.50;99.90;;;;;;6122767;23;20022;-77
2022/12/16 01:31:50;;;;;;;12.07;4.47;;;0.60;99.90;;;;;;6147501;23;20045;-77
2022/12/16 01:34:22;;;;;;;10.10;4.10;;;0.50;99.90;;;;;;6121761;23;20044;-78
2022/12/16 01:36:48;;;;;;;11.45;5.28;;;0.50;99.90;;;;;;6123823;23;20056;-78
2022/12/16 01:39:14;;;;;;;8.27;3.80;;;0.50;99.90;;;;;;6098420;23;20014;-78
2022/12/16 01:41:39;;;;;;;8.57;4.25;;;0.50;99.90;;;;;;6121890;23;20018;-78
2022/12/16 01:44:23;;;;;;;10.45;4.30;;;0.50;99.90;;;;;;6149400;23;20096;-77
2022/12/16 01:46:52;;;;;;;13.20;4.88;;;0.50;99.90;;;;;;6147177;23;20092;-78
2022/12/16 01:49:27;;;;;;;9.43;4.00;;;0.50;99.90;;;;;;6148577;23;20421;-78
2022/12/16 01:51:59;;;;;;;9.50;5.10;;;0.40;99.90;;;;;;6130572;23;20154;-78
2022/12/16 01:54:33;;;;;;;10.95;4.03;;;0.30;99.90;;;;;;6147075;23;20033;-78
2022/12/16 01:57:08;;;;;;;;;;;0.30;99.90;;;;;;6149660;23;20492;-79
2022/12/16 01:59:37;;;;;;;15.80;3.88;;;0.20;99.90;;;;;;6121644;23;19920;-78
2022/12/16 02:02:04;;;;;;;10.23;4.53;;;0.30;99.90;;;;;;6118488;23;20045;-75
2022/12/16 02:04:29;;;;;;;10.43;4.65;;;0.30;99.90;;;;;;6148817;23;20484;-76
2022/12/16 02:06:56;;;;;;;8.73;4.20;;;0.20;99.90;;;;;;6120515;23;20255;-76
2022/12/16 02:09:21;;;;;;;11.45;4.70;;;0.20;99.90;;;;;;6148804;23;20096;-76
2022/12/16 02:11:59;;;;;;;10.30;5.97;;;0.20;99.90;;;;;;6147655;23;20037;-78
2022/12/16 02:15:04;;;;;;;12.50;4.38;;;0.20;99.90;;;;;;6146079;23;20501;-76
2022/12/16 02:18:04;;;;;;;8.73;4.32;;;0.20;99.90;;;;;;6147141;23;20024;-78
2022/12/16 02:20:55;;;;;;;11.68;3.83;;;0.10;99.90;;;;;;6146246;23;20489;-77
2022/12/16 02:23:42;;;;;;;9.20;3.50;;;0.10;99.90;;;;;;6148281;23;20358;-77
2022/12/16 02:26:07;;;;;;;10.50;3.53;;;0.10;99.90;;;;;;6154811;23;20259;-76
2022/12/16 02:29:10;;;;;;;11.30;3.92;;;0.10;99.90;;;;;;6134560;23;20025;-77
2022/12/16 02:31:55;;;;;;;6.93;3.60;;;0.10;99.90;;;;;;6146415;23;20124;-77
2022/12/16 02:34:47;;;;;;;9.75;4.05;;;0.20;99.90;;;;;;6121291;23;20060;-77
2022/12/16 02:37:46;;;;;;;7.80;4.43;;;0.30;99.90;;;;;;6121112;23;20013;-77
2022/12/16 02:40:25;;;;;;;10.70;3.33;;;0.20;99.90;;;;;;6121237;23;20068;-77
2022/12/16 02:43:03;;;;;;;9.32;3.85;;;0.30;99.90;;;;;;6120155;23;20028;-76
2022/12/16 02:45:30;;;;;;;10.93;3.70;;;0.20;99.90;;;;;;6120478;23;20036;-77
2022/12/16 02:47:56;;;;;;;8.70;4.13;;;0.30;99.90;;;;;;6146482;23;20262;-77
2022/12/16 02:50:36;;;;;;;9.77;3.80;;;0.30;99.90;;;;;;6120999;23;20032;-78
2022/12/16 02:53:03;;;;;;;7.80;3.55;;;0.30;99.90;;;;;;6121858;23;20041;-76
2022/12/16 02:55:42;;;;;;;10.85;4.10;;;0.40;99.90;;;;;;6147993;23;20129;-76
2022/12/16 02:58:26;;;;;;;12.45;5.10;;;0.40;99.90;;;;;;6120409;23;20018;-77
2022/12/16 03:01:15;;;;;;;9.45;4.05;;;0.40;99.90;;;;;;6122195;23;20032;-77
2022/12/16 03:03:53;;;;;;;10.07;4.13;;;0.40;99.90;;;;;;6120435;23;20104;-77
2022/12/16 03:06:21;;;;;;;8.75;4.15;;;0.50;99.90;;;;;;6120920;23;20464;-76
2022/12/16 03:08:51;;;;;;;12.23;4.00;;;0.50;99.90;;;;;;6121885;23;20037;-77
2022/12/16 03:11:17;;;;;;;8.48;4.00;;;0.50;99.90;;;;;;6122007;23;20017;-78
2022/12/16 03:13:50;;;;;;;8.45;4.22;;;0.40;99.90;;;;;;6147986;23;20591;-77
2022/12/16 03:16:20;;;;;;;8.65;4.75;;;0.40;99.90;;;;;;6119112;23;20087;-77
2022/12/16 03:18:53;;;;;;;10.57;4.00;;;0.40;99.90;;;;;;6121781;23;20607;-75
2022/12/16 03:21:23;;;;;;;10.68;4.68;;;0.30;99.90;;;;;;6120357;23;20022;-75
2022/12/16 03:23:59;;;;;;;8.75;4.38;;;0.30;99.90;;;;;;6121986;23;20022;-76
2022/12/16 03:26:33;;;;;;;8.77;4.40;;;0.40;99.90;;;;;;6147310;23;20040;-77
2022/12/16 03:29:21;;;;;;;11.23;5.05;;;0.40;99.90;;;;;;6148457;23;20485;-76
2022/12/16 03:32:02;;;;;;;11.55;4.50;;;0.40;99.90;;;;;;6145242;23;20397;-77
2022/12/16 03:34:39;;;;;;;10.80;4.60;;;0.30;99.90;;;;;;6148360;23;20061;-75
2022/12/16 03:37:09;;;;;;;9.80;4.90;;;0.30;99.90;;;;;;6146667;23;20353;-75
2022/12/16 03:39:40;;;;;;;12.23;5.05;;;0.20;99.90;;;;;;6147372;23;20036;-77
2022/12/16 03:42:07;;;;;;;11.13;4.82;;;0.20;99.90;;;;;;6147004;23;20017;-76
2022/12/16 03:44:34;;;;;;;8.13;4.65;;;0.20;99.90;;;;;;6120860;23;20040;-76
2022/12/16 03:47:00;;;;;;;8.98;4.45;;;0.20;99.90;;;;;;6145284;23;20076;-76
2022/12/16 03:49:29;;;;;;;10.48;4.30;;;0.20;99.90;;;;;;6147900;23;20473;-77
2022/12/16 03:51:55;;;;;;;8.40;4.45;;;0.10;99.90;;;;;;6147004;23;20013;-77
2022/12/16 03:54:22;;;;;;;11.15;4.82;;;0.00;99.90;;;;;;6148477;23;20185;-77
2022/12/16 03:56:47;;;;;;;10.98;4.13;;;0.00;99.90;;;;;;6120661;23;20037;-78
2022/12/16 03:59:13;;;;;;;7.70;4.43;;;0.10;99.90;;;;;;6148409;23;20064;-77
2022/12/16 04:01:40;;;;;;;8.95;4.70;;;0.10;99.90;;;;;;6146113;23;20072;-78
2022/12/16 04:04:06;;;;;;;11.10;5.07;;;0.10;99.90;;;;;;6148424;23;20025;-75
2022/12/16 04:06:32;;;;;;;12.40;5.38;;;0.10;99.90;;;;;;6146515;23;20032;-75
2022/12/16 04:08:57;;;;;;;9.57;5.18;;;0.20;99.90;;;;;;6147635;23;20025;-77
2022/12/16 04:25:32;;;;;;;11.75;5.60;;;0.30;99.90;;;;;;6147996;23;20028;-76
2022/12/16 04:27:59;;;;;;;13.98;6.00;;;0.40;99.90;;;;;;6146502;23;20025;-76
2022/12/16 04:30:26;;;;;;;10.88;5.57;;;0.40;99.90;;;;;;6148064;23;20517;-76
